Time;durP1;ratioP1;P1;durP2;ratioP2;P2;SDS_P1;SDS_P2;PMS_P1;PMS_P2;Temp;Humidity;BMP_temperature;BMP_pressure;BME280_temperature;BME280_humidity;BME280_pressure;Samples;Min_cycle;Max_cycle;Signal;HPM_P1;HPM_P2
2023/11/06 00:00:34;;;;;;;;;;;;;;;24.95;34.32;99661.19;4216213;28;19968;-58
2023/11/06 00:02:36;;;;;;;;;;;;;;;24.95;34.28;99666.56;4197740;28;20009;-58
2023/11/06 00:04:37;;;;;;;;;;;;;;;24.96;34.33;99661.00;4216184;28;20350;-58
2023/11/06 00:06:39;;;;;;;;;;;;;;;24.98;34.33;99666.22;4215870;28;20026;-58
2023/11/06 00:08:40;;;;;;;;;;;;;;;24.99;34.29;99657.94;4197842;28;20007;-58
2023/11/06 00:10:42;;;;;;;;;;;;;;;24.99;34.50;99665.19;4215696;28;19924;-58
2023/11/06 00:12:44;;;;;;;;;;;;;;;24.98;34.27;99664.38;4216022;28;19935;-58
2023/11/06 00:14:47;;;;;;;;;;;;;;;24.99;34.16;99675.97;4215655;28;20296;-58
2023/11/06 00:16:51;;;;;;;;;;;;;;;24.97;34.19;99680.66;4215842;28;20334;-58
2023/11/06 00:18:53;;;;;;;;;;;;;;;24.95;34.37;99675.47;4215743;28;20007;-59
2023/11/06 00:20:56;;;;;;;;;;;;;;;24.96;34.51;99673.59;4216118;28;19928;-58
2023/11/06 00:22:57;;;;;;;;;;;;;;;24.95;34.56;99674.63;4215897;28;20103;-58
2023/11/06 00:24:59;;;;;;;;;;;;;;;24.95;34.32;99670.09;4197243;28;19988;-58
2023/11/06 00:27:01;;;;;;;;;;;;;;;24.97;34.24;99668.06;4215753;28;19924;-58
2023/11/06 00:29:02;;;;;;;;;;;;;;;24.98;34.24;99676.97;4215634;28;19970;-57
2023/11/06 00:31:04;;;;;;;;;;;;;;;24.99;34.19;99675.97;4215620;28;19931;-57
2023/11/06 00:33:05;;;;;;;;;;;;;;;24.99;34.32;99675.97;4197657;28;19925;-58
2023/11/06 00:35:09;;;;;;;;;;;;;;;24.99;34.21;99684.03;4197560;28;19933;-58
2023/11/06 00:37:11;;;;;;;;;;;;;;;24.98;34.07;99679.66;4215619;28;19960;-58
2023/11/06 00:39:13;;;;;;;;;;;;;;;24.97;34.30;99686.91;4215322;28;20031;-58
2023/11/06 00:41:15;;;;;;;;;;;;;;;24.97;34.27;99688.72;4215086;28;19932;-57
2023/11/06 00:43:16;;;;;;;;;;;;;;;24.97;34.20;99677.97;4214745;28;19951;-58
2023/11/06 00:45:18;;;;;;;;;;;;;;;24.97;34.56;99688.72;4215388;28;19924;-59
2023/11/06 00:47:19;;;;;;;;;;;;;;;24.98;34.21;99683.19;4215390;28;20415;-58
2023/11/06 00:49:21;;;;;;;;;;;;;;;24.99;34.17;99687.53;4215157;28;19939;-58
2023/11/06 00:51:22;;;;;;;;;;;;;;;25.00;34.32;99683.03;4215197;28;19924;-58
2023/11/06 00:53:24;;;;;;;;;;;;;;;25.00;34.50;99683.03;4214956;28;20278;-58
2023/11/06 00:55:28;;;;;;;;;;;;;;;25.02;34.08;99678.31;4215289;28;20292;-58
2023/11/06 00:57:30;;;;;;;;;;;;;;;25.01;34.64;99676.63;4215227;28;19955;-59
2023/11/06 00:59:31;;;;;;;;;;;;;;;25.00;34.19;99674.94;4215399;28;20312;-58
2023/11/06 01:01:33;;;;;;;;;;;;;;;24.98;34.19;99680.50;4215144;28;20011;-58
2023/11/06 01:03:34;;;;;;;;;;;;;;;24.98;34.29;99687.72;4197102;28;19932;-58
2023/11/06 01:05:37;;;;;;;;;;;;;;;24.95;34.22;99683.53;4215093;28;19924;-58
2023/11/06 01:07:38;;;;;;;;;;;;;;;24.96;34.21;99687.06;4214722;28;19985;-58
2023/11/06 01:09:40;;;;;;;;;;;;;;;24.95;34.27;99688.09;4214871;28;19924;-58
2023/11/06 01:11:46;;;;;;;;;;;;;;;24.97;34.20;99694.97;4215025;28;19973;-59
2023/11/06 01:13:49;;;;;;;;;;;;;;;24.98;34.54;99693.09;4215108;28;19924;-58
2023/11/06 01:15:51;;;;;;;;;;;;;;;24.99;34.35;99684.84;4215129;28;19934;-58
2023/11/06 01:17:53;;;;;;;;;;;;;;;25.00;34.24;99689.22;4214849;28;19924;-58
2023/11/06 01:19:54;;;;;;;;;;;;;;;25.00;34.17;99686.53;4215053;28;19932;-57
2023/11/06 01:21:56;;;;;;;;;;;;;;;24.99;34.19;99682.16;4214656;28;19957;-57
2023/11/06 01:23:57;;;;;;;;;;;;;;;24.97;34.30;99694.97;4214963;28;19924;-57
2023/11/06 01:25:59;;;;;;;;;;;;;;;24.96;34.18;99689.75;4214774;28;19924;-57
2023/11/06 01:28:04;;;;;;;;;;;;;;;24.94;34.40;99694.47;4214936;28;19933;-55
2023/11/06 01:30:06;;;;;;;;;;;;;;;24.94;34.24;99689.94;4214899;28;19932;-57
2023/11/06 01:32:08;;;;;;;;;;;;;;;24.96;34.19;99695.97;4214619;28;20377;-58
2023/11/06 01:34:10;;;;;;;;;;;;;;;24.96;34.50;99693.28;4214600;28;19924;-58
2023/11/06 01:36:11;;;;;;;;;;;;;;;24.98;34.38;99696.66;4214755;28;20372;-58
2023/11/06 01:38:13;;;;;;;;;;;;;;;24.98;34.13;99695.78;4214305;28;19966;-57
2023/11/06 01:40:16;;;;;;;;;;;;;;;24.98;34.27;99696.66;4214717;28;20393;-58
2023/11/06 01:42:17;;;;;;;;;;;;;;;24.99;34.37;99708.22;4214510;28;20023;-57
2023/11/06 01:44:19;;;;;;;;;;;;;;;24.98;34.02;99707.41;4214715;28;19959;-58
2023/11/06 01:46:20;;;;;;;;;;;;;;;24.96;34.38;99704.03;4214640;28;19985;-58
2023/11/06 01:48:25;;;;;;;;;;;;;;;24.96;34.37;99709.44;4214365;28;19924;-58
2023/11/06 01:50:28;;;;;;;;;;;;;;;24.95;34.07;99709.59;4214366;28;19924;-57
2023/11/06 01:52:30;;;;;;;;;;;;;;;24.94;34.23;99699.84;4214077;28;19932;-57
2023/11/06 01:54:32;;;;;;;;;;;;;;;24.94;34.20;99705.22;4214222;28;19924;-57
2023/11/06 01:56:36;;;;;;;;;;;;;;;24.94;34.53;99705.22;4214376;28;19932;-58
2023/11/06 01:58:38;;;;;;;;;;;;;;;24.95;34.49;99710.44;4214262;28;19982;-57
2023/11/06 02:00:40;;;;;;;;;;;;;;;24.97;33.96;99707.56;4214382;28;20373;-56
2023/11/06 02:02:43;;;;;;;;;;;;;;;24.96;34.19;99701.34;4214309;28;19924;-57
2023/11/06 02:04:49;;;;;;;;;;;;;;;24.98;34.19;99709.25;4214190;28;19928;-57
2023/11/06 02:06:51;;;;;;;;;;;;;;;24.98;34.17;99715.47;4213732;28;20308;-58
2023/11/06 02:08:52;;;;;;;;;;;;;;;24.96;34.34;99706.72;4214260;28;19977;-57
2023/11/06 02:10:54;;;;;;;;;;;;;;;24.96;34.10;99713.94;4214178;28;20681;-57
2023/11/06 02:12:56;;;;;;;;;;;;;;;24.94;34.20;99714.13;4214054;28;19927;-56
2023/11/06 02:14:57;;;;;;;;;;;;;;;24.95;34.20;99720.38;4213870;28;19925;-57
2023/11/06 02:16:59;;;;;;;;;;;;;;;24.96;34.51;99713.94;4213850;28;19928;-57
2023/11/06 02:19:02;;;;;;;;;;;;;;;24.97;34.27;99716.50;4213116;28;19924;-57
2023/11/06 02:21:05;;;;;;;;;;;;;;;24.96;34.13;99717.50;4213640;28;19924;-60
2023/11/06 02:23:08;;;;;;;;;;;;;;;24.97;34.32;99721.88;4213942;28;20393;-56
2023/11/06 02:25:10;;;;;;;;;;;;;;;24.98;34.17;99717.31;4213896;28;20353;-56
2023/11/06 02:27:12;;;;;;;;;;;;;;;24.97;34.12;99724.56;4213851;28;20385;-56
2023/11/06 02:29:13;;;;;;;;;;;;;;;24.97;34.23;99719.19;4213618;28;19924;-57
2023/11/06 02:31:15;;;;;;;;;;;;;;;24.95;34.16;99704.22;4213601;28;20461;-57
2023/11/06 02:33:17;;;;;;;;;;;;;;;24.95;34.27;99721.19;4213865;28;19924;-57
2023/11/06 02:35:18;;;;;;;;;;;;;;;24.93;34.45;99728.59;4213507;28;19978;-57
2023/11/06 02:37:20;;;;;;;;;;;;;;;24.91;34.25;99725.25;4213706;28;19971;-57
2023/11/06 02:39:22;;;;;;;;;;;;;;;24.92;34.33;99724.22;4213827;28;20022;-57
2023/11/06 02:41:23;;;;;;;;;;;;;;;24.93;34.59;99730.44;4213472;28;19931;-57
2023/11/06 02:43:25;;;;;;;;;;;;;;;24.94;34.23;99734.81;4213873;28;20386;-57
2023/11/06 02:45:26;;;;;;;;;;;;;;;24.95;34.14;99736.50;4213642;28;20362;-58
2023/11/06 02:47:28;;;;;;;;;;;;;;;24.94;34.25;99740.19;4213727;28;20317;-58
2023/11/06 02:49:30;;;;;;;;;;;;;;;24.95;34.54;99742.72;4213335;28;19924;-57
2023/11/06 02:51:32;;;;;;;;;;;;;;;24.96;34.13;99740.84;4195800;28;19928;-57
2023/11/06 02:53:33;;;;;;;;;;;;;;;24.95;34.24;99742.72;4213439;28;19960;-57
2023/11/06 02:55:35;;;;;;;;;;;;;;;24.94;34.43;99751.78;4195586;28;19974;-57
2023/11/06 02:57:36;;;;;;;;;;;;;;;24.91;34.39;99745.91;4213552;28;19924;-57
2023/11/06 02:59:38;;;;;;;;;;;;;;;24.89;34.20;99748.78;4213575;28;19932;-58
2023/11/06 03:01:40;;;;;;;;;;;;;;;24.89;34.20;99746.09;4213592;28;20417;-57
2023/11/06 03:03:42;;;;;;;;;;;;;;;24.90;34.12;99749.59;4213259;28;19974;-57
2023/11/06 03:05:43;;;;;;;;;;;;;;;24.91;34.42;99749.47;4215213;28;19928;-57
2023/11/06 03:07:45;;;;;;;;;;;;;;;24.92;34.19;99744.91;4216892;28;19924;-58
2023/11/06 03:09:47;;;;;;;;;;;;;;;24.94;34.08;99748.28;4216999;28;20011;-58
2023/11/06 03:11:48;;;;;;;;;;;;;;;24.95;34.06;99749.94;4217071;28;19939;-58
2023/11/06 03:13:50;;;;;;;;;;;;;;;24.96;34.07;99752.47;4216704;28;20019;-58
2023/11/06 03:15:51;;;;;;;;;;;;;;;24.95;34.37;99753.47;4216738;28;19931;-59
2023/11/06 03:17:53;;;;;;;;;;;;;;;24.92;34.33;99756.50;4216197;28;20024;-58
2023/11/06 03:19:55;;;;;;;;;;;;;;;24.92;34.16;99759.19;4198955;28;19928;-57
2023/11/06 03:21:56;;;;;;;;;;;;;;;24.91;34.34;99768.28;4216767;28;20439;-57
2023/11/06 03:23:58;;;;;;;;;;;;;;;24.91;34.44;99762.06;4216814;28;20308;-58
2023/11/06 03:25:59;;;;;;;;;;;;;;;24.91;34.14;99765.59;4216668;28;20393;-58
2023/11/06 03:28:01;;;;;;;;;;;;;;;24.92;34.31;99772.63;4216718;28;19936;-61
2023/11/06 03:30:04;;;;;;;;;;;;;;;24.93;34.37;99774.31;4216512;28;19925;-57
2023/11/06 03:32:05;;;;;;;;;;;;;;;24.94;34.15;99769.78;4216773;28;20381;-57
2023/11/06 03:34:07;;;;;;;;;;;;;;;24.94;34.15;99773.31;4216398;28;19924;-56
2023/11/06 03:36:09;;;;;;;;;;;;;;;24.94;34.33;99765.22;4216520;28;20285;-57
2023/11/06 03:38:10;;;;;;;;;;;;;;;24.94;34.15;99772.47;4216519;28;20007;-57
2023/11/06 03:40:12;;;;;;;;;;;;;;;24.92;34.29;99772.63;4216313;28;19964;-57
2023/11/06 03:42:13;;;;;;;;;;;;;;;24.91;34.46;99772.81;4216287;28;20336;-56
2023/11/06 03:44:15;;;;;;;;;;;;;;;24.89;34.22;99764.91;4216547;28;19931;-57
2023/11/06 03:46:17;;;;;;;;;;;;;;;24.90;34.60;99763.91;4216281;28;19928;-57
2023/11/06 03:48:18;;;;;;;;;;;;;;;24.91;34.42;99772.81;4215823;28;19970;-58
2023/11/06 03:50:20;;;;;;;;;;;;;;;24.91;34.53;99762.91;4216247;28;20015;-59
2023/11/06 03:52:21;;;;;;;;;;;;;;;24.92;34.53;99769.13;4216297;28;20266;-57
2023/11/06 03:54:24;;;;;;;;;;;;;;;24.94;34.21;99769.78;4216227;28;20410;-57
2023/11/06 03:56:25;;;;;;;;;;;;;;;24.96;34.44;99770.44;4216272;28;19947;-57
2023/11/06 03:58:27;;;;;;;;;;;;;;;24.96;34.08;99770.44;4216399;28;19973;-57
2023/11/06 04:00:29;;;;;;;;;;;;;;;24.94;34.28;99759.84;4216280;28;20270;-57
2023/11/06 04:02:30;;;;;;;;;;;;;;;24.95;34.21;99777.69;4215782;28;19931;-57
2023/11/06 04:04:32;;;;;;;;;;;;;;;24.95;34.27;99771.47;4216086;28;19970;-57
2023/11/06 04:06:33;;;;;;;;;;;;;;;24.92;34.37;99778.00;4216154;28;19924;-57
2023/11/06 04:08:35;;;;;;;;;;;;;;;24.92;34.37;99769.94;4216095;28;20017;-57
2023/11/06 04:10:40;;;;;;;;;;;;;;;24.92;34.47;99769.13;4215837;28;19973;-57
2023/11/06 04:12:41;;;;;;;;;;;;;;;24.94;34.19;99770.63;4215899;28;19970;-58
2023/11/06 04:14:43;;;;;;;;;;;;;;;24.96;34.20;99768.59;4215840;28;19931;-57
2023/11/06 04:16:44;;;;;;;;;;;;;;;24.95;34.19;99769.59;4214163;28;19924;-57
2023/11/06 04:18:47;;;;;;;;;;;;;;;24.96;34.13;99773.97;4215709;28;19939;-57
2023/11/06 04:20:48;;;;;;;;;;;;;;;24.99;34.05;99779.00;4215877;28;19969;-57
2023/11/06 04:22:50;;;;;;;;;;;;;;;24.98;34.12;99780.03;4215778;28;19962;-57
2023/11/06 04:24:51;;;;;;;;;;;;;;;24.99;34.07;99786.25;4215745;28;19947;-57
2023/11/06 04:26:53;;;;;;;;;;;;;;;24.95;34.14;99787.63;4215613;28;19975;-58
2023/11/06 04:28:55;;;;;;;;;;;;;;;24.93;34.16;99781.56;4215757;28;19927;-58
2023/11/06 04:30:57;;;;;;;;;;;;;;;24.92;34.11;99788.75;4215052;28;20022;-57
2023/11/06 04:32:59;;;;;;;;;;;;;;;24.91;34.20;99784.44;4215419;28;20031;-57
2023/11/06 04:35:00;;;;;;;;;;;;;;;24.93;34.17;99792.31;4215690;28;19928;-57
2023/11/06 04:37:04;;;;;;;;;;;;;;;24.97;34.26;99804.41;4215588;28;19950;-57
2023/11/06 04:39:05;;;;;;;;;;;;;;;24.98;34.02;99811.47;4215628;28;19951;-57
2023/11/06 04:41:08;;;;;;;;;;;;;;;24.97;34.41;99821.41;4215559;28;19935;-57
2023/11/06 04:43:10;;;;;;;;;;;;;;;25.00;34.29;99825.59;4215546;28;19924;-57
2023/11/06 04:45:11;;;;;;;;;;;;;;;24.98;34.05;99830.28;4215143;28;19928;-56
2023/11/06 04:47:13;;;;;;;;;;;;;;;24.97;34.18;99833.97;4215355;28;20015;-57
2023/11/06 04:49:15;;;;;;;;;;;;;;;24.97;34.24;99834.84;4215151;28;20010;-57
2023/11/06 04:51:16;;;;;;;;;;;;;;;24.94;34.08;99829.78;4215277;28;19931;-57
2023/11/06 04:53:18;;;;;;;;;;;;;;;24.93;34.44;99821.91;4215318;28;20293;-57
2023/11/06 04:55:20;;;;;;;;;;;;;;;24.91;34.17;99823.91;4215255;28;19924;-56
2023/11/06 04:57:22;;;;;;;;;;;;;;;24.93;34.41;99824.59;4215163;28;19924;-58
2023/11/06 04:59:23;;;;;;;;;;;;;;;24.95;34.19;99827.97;4214909;28;19928;-57
2023/11/06 05:01:25;;;;;;;;;;;;;;;24.95;34.19;99828.78;4215147;28;19931;-57
2023/11/06 05:03:26;;;;;;;;;;;;;;;24.95;34.15;99822.56;4215271;28;19924;-57
2023/11/06 05:05:28;;;;;;;;;;;;;;;24.87;34.48;99805.44;4215158;28;19928;-57
2023/11/06 05:07:30;;;;;;;;;;;;;;;24.99;34.02;99829.28;4214969;28;20405;-57
2023/11/06 05:09:31;;;;;;;;;;;;;;;24.97;34.21;99824.09;4215052;28;19936;-57
2023/11/06 05:11:34;;;;;;;;;;;;;;;24.96;34.14;99822.41;4215046;28;19925;-58
2023/11/06 05:13:35;;;;;;;;;;;;;;;24.95;34.22;99831.47;4215146;28;19931;-57
2023/11/06 05:15:37;;;;;;;;;;;;;;;24.94;34.46;99828.97;4214594;28;19928;-58
2023/11/06 05:17:38;;;;;;;;;;;;;;;24.93;34.47;99825.41;4215011;28;19924;-57
2023/11/06 05:19:43;;;;;;;;;;;;;;;24.93;34.64;99825.41;4215153;28;19924;-57
2023/11/06 05:21:45;;;;;;;;;;;;;;;24.96;34.49;99825.09;4215123;28;19977;-58
2023/11/06 05:23:47;;;;;;;;;;;;;;;24.94;34.52;99827.09;4214831;28;19930;-57
2023/11/06 05:25:48;;;;;;;;;;;;;;;24.95;34.15;99831.47;4214877;28;19970;-57
2023/11/06 05:27:51;;;;;;;;;;;;;;;24.96;34.22;99827.78;4214385;28;20286;-58
2023/11/06 05:29:53;;;;;;;;;;;;;;;24.99;34.08;99826.59;4214497;28;20415;-57
2023/11/06 05:31:54;;;;;;;;;;;;;;;24.99;34.23;99826.59;4214652;28;19928;-57
2023/11/06 05:33:58;;;;;;;;;;;;;;;24.98;34.36;99824.91;4214638;28;19931;-57
2023/11/06 05:35:59;;;;;;;;;;;;;;;24.96;34.24;99830.47;4214662;28;19928;-58
2023/11/06 05:38:03;;;;;;;;;;;;;;;24.95;34.24;99827.97;4214376;28;19989;-58
2023/11/06 05:40:05;;;;;;;;;;;;;;;24.95;34.19;99830.66;4214362;28;19932;-58
2023/11/06 05:42:07;;;;;;;;;;;;;;;24.95;34.27;99827.97;4214494;28;19924;-58
2023/11/06 05:44:08;;;;;;;;;;;;;;;24.98;34.53;99832.97;4214243;28;19963;-58
2023/11/06 05:46:10;;;;;;;;;;;;;;;24.98;34.30;99831.16;4214301;28;20011;-57
2023/11/06 05:48:12;;;;;;;;;;;;;;;25.01;34.43;99832.66;4214374;28;19924;-57
2023/11/06 05:50:13;;;;;;;;;;;;;;;25.01;34.61;99832.66;4214115;28;20007;-58
2023/11/06 05:52:15;;;;;;;;;;;;;;;25.03;34.45;99825.22;4214483;28;19924;-59
2023/11/06 05:54:19;;;;;;;;;;;;;;;25.04;34.27;99826.91;4214198;28;19928;-58
2023/11/06 05:56:21;;;;;;;;;;;;;;;25.03;34.17;99836.84;4214806;28;20014;-57
2023/11/06 05:58:23;;;;;;;;;;;;;;;24.99;34.55;99827.41;4214075;28;19924;-57
2023/11/06 06:00:24;;;;;;;;;;;;;;;24.98;34.45;99828.47;4214474;28;19933;-57
2023/11/06 06:02:27;;;;;;;;;;;;;;;24.96;34.38;99826.91;4214469;28;19931;-58
2023/11/06 06:04:30;;;;;;;;;;;;;;;24.95;34.22;99819.88;4214133;28;19924;-57
2023/11/06 06:06:32;;;;;;;;;;;;;;;24.96;34.27;99824.22;4214182;28;19977;-58
2023/11/06 06:08:33;;;;;;;;;;;;;;;24.95;34.64;99828.78;4214299;28;19928;-58
2023/11/06 06:10:35;;;;;;;;;;;;;;;24.97;34.30;99829.47;4214098;28;20302;-58
2023/11/06 06:12:37;;;;;;;;;;;;;;;25.01;34.59;99838.84;4213774;28;19924;-58
2023/11/06 06:14:38;;;;;;;;;;;;;;;25.04;34.30;99838.53;4214066;28;20007;-58
2023/11/06 06:16:40;;;;;;;;;;;;;;;25.02;34.17;99837.84;4214245;28;20031;-58
2023/11/06 06:18:41;;;;;;;;;;;;;;;25.00;34.58;99837.19;4214079;28;20665;-58
2023/11/06 06:20:43;;;;;;;;;;;;;;;24.99;34.17;99843.56;4214098;28;20015;-58
2023/11/06 06:22:46;;;;;;;;;;;;;;;24.98;34.29;99841.06;4214136;28;19958;-57
2023/11/06 06:24:48;;;;;;;;;;;;;;;24.97;34.53;99837.53;4213900;28;20022;-58
2023/11/06 06:26:49;;;;;;;;;;;;;;;24.96;34.52;99843.91;4213535;28;19931;-58
2023/11/06 06:28:51;;;;;;;;;;;;;;;24.95;34.38;99844.94;4214088;28;20324;-59
2023/11/06 06:30:52;;;;;;;;;;;;;;;24.96;34.31;99841.22;4213818;28;19989;-59
2023/11/06 06:32:54;;;;;;;;;;;;;;;24.96;34.34;99846.59;4213829;28;19924;-59
2023/11/06 06:34:56;;;;;;;;;;;;;;;24.98;34.59;99854.50;4195961;28;19932;-59
2023/11/06 06:36:57;;;;;;;;;;;;;;;25.01;34.26;99846.09;4213893;28;19928;-58
2023/11/06 06:38:59;;;;;;;;;;;;;;;24.99;34.32;99851.63;4213846;28;20023;-58
2023/11/06 06:41:00;;;;;;;;;;;;;;;24.99;34.19;99850.81;4212778;28;20015;-58
2023/11/06 06:43:02;;;;;;;;;;;;;;;24.99;34.26;99848.94;4213721;28;19931;-58
2023/11/06 06:45:07;;;;;;;;;;;;;;;24.97;34.23;99859.06;4213750;28;19931;-57
2023/11/06 06:47:08;;;;;;;;;;;;;;;24.94;34.39;99848.63;4213907;28;19981;-57
2023/11/06 06:49:11;;;;;;;;;;;;;;;24.93;34.40;99860.38;4213508;28;19970;-58
2023/11/06 06:51:13;;;;;;;;;;;;;;;24.93;34.45;99852.31;4213815;28;19956;-58
2023/11/06 06:53:15;;;;;;;;;;;;;;;24.93;34.68;99859.56;4213518;28;20400;-58
2023/11/06 06:55:21;;;;;;;;;;;;;;;24.96;34.49;99861.88;4213332;28;19928;-58
2023/11/06 06:57:22;;;;;;;;;;;;;;;24.99;34.44;99861.56;4213858;28;20412;-58
2023/11/06 06:59:26;;;;;;;;;;;;;;;24.98;34.27;99871.50;4213693;28;19924;-58
2023/11/06 07:01:28;;;;;;;;;;;;;;;24.97;34.44;99867.13;4213647;28;19928;-58
2023/11/06 07:03:33;;;;;;;;;;;;;;;24.95;34.48;99871.81;4212978;28;20135;-58
2023/11/06 07:05:35;;;;;;;;;;;;;;;24.95;34.08;99876.38;4213848;28;19973;-57
2023/11/06 07:07:37;;;;;;;;;;;;;;;24.94;34.49;99885.44;4213572;28;20069;-58
2023/11/06 07:09:38;;;;;;;;;;;;;;;24.90;34.36;99887.63;4213797;28;20365;-58
2023/11/06 07:11:40;;;;;;;;;;;;;;;24.90;34.46;99895.69;4213276;28;20331;-57
2023/11/06 07:13:42;;;;;;;;;;;;;;;24.88;34.23;99889.66;4213614;28;20335;-57
2023/11/06 07:15:44;;;;;;;;;;;;;;;24.88;34.27;99886.94;4213466;28;19954;-57
2023/11/06 07:17:45;;;;;;;;;;;;;;;24.94;34.37;99891.66;4213320;28;19924;-57
2023/11/06 07:19:47;;;;;;;;;;;;;;;24.96;34.31;99888.78;4213461;28;19947;-58
2023/11/06 07:21:49;;;;;;;;;;;;;;;24.94;34.14;99888.97;4213448;28;20454;-58
2023/11/06 07:23:50;;;;;;;;;;;;;;;24.93;34.17;99905.28;4195602;28;19931;-58
2023/11/06 07:25:52;;;;;;;;;;;;;;;24.92;34.21;99906.28;4213064;28;19924;-58
2023/11/06 07:27:53;;;;;;;;;;;;;;;24.92;34.19;99900.91;4213160;28;19924;-58
2023/11/06 07:29:55;;;;;;;;;;;;;;;24.88;34.06;99903.91;4213543;28;20458;-58
2023/11/06 07:31:57;;;;;;;;;;;;;;;24.88;34.17;99908.47;4213494;28;19972;-58
2023/11/06 07:33:58;;;;;;;;;;;;;;;24.86;34.47;99908.66;4213150;28;19934;-58
2023/11/06 07:36:00;;;;;;;;;;;;;;;24.85;34.17;99914.19;4213390;28;19978;-58
2023/11/06 07:38:03;;;;;;;;;;;;;;;24.85;34.38;99908.81;4213231;28;19924;-58
2023/11/06 07:40:06;;;;;;;;;;;;;;;24.88;34.27;99909.28;4213077;28;19943;-57
2023/11/06 07:42:11;;;;;;;;;;;;;;;24.88;34.46;99917.38;4213323;28;19928;-58
2023/11/06 07:44:12;;;;;;;;;;;;;;;24.89;34.24;99918.22;4213393;28;19924;-58
2023/11/06 07:46:18;;;;;;;;;;;;;;;24.89;34.10;99920.91;4195128;28;20110;-58
2023/11/06 07:48:20;;;;;;;;;;;;;;;24.88;34.01;99921.91;4213291;28;19924;-58
2023/11/06 07:50:23;;;;;;;;;;;;;;;24.88;34.15;99920.06;4213114;28;20395;-58
2023/11/06 07:52:24;;;;;;;;;;;;;;;24.88;34.16;99930.81;4215621;28;20359;-55
2023/11/06 07:54:26;;;;;;;;;;;;;;;24.87;34.29;99936.38;4216151;28;20014;-58
2023/11/06 07:56:29;;;;;;;;;;;;;;;24.86;34.55;99935.53;4216133;28;19924;-58
2023/11/06 07:58:30;;;;;;;;;;;;;;;24.84;34.13;99948.31;4216491;28;19949;-58
2023/11/06 08:00:35;;;;;;;;;;;;;;;24.78;34.36;99932.84;4216378;28;19932;-58
2023/11/06 08:02:50;;;;;;;;;;;;;;;24.86;34.41;99962.44;4216331;28;19924;-57
2023/11/06 08:04:52;;;;;;;;;;;;;;;24.89;34.29;99953.19;4215876;28;19924;-58
2023/11/06 08:06:53;;;;;;;;;;;;;;;24.89;34.00;99955.88;4215841;28;19924;-58
2023/11/06 08:08:55;;;;;;;;;;;;;;;24.89;34.08;99963.94;4215560;28;20098;-58
2023/11/06 08:10:56;;;;;;;;;;;;;;;24.90;34.39;99967.47;4216235;28;19977;-59
2023/11/06 08:12:59;;;;;;;;;;;;;;;24.86;34.29;99959.75;4215979;28;19935;-58
2023/11/06 08:15:02;;;;;;;;;;;;;;;24.85;33.98;99966.13;4215743;28;19924;-58
2023/11/06 08:17:04;;;;;;;;;;;;;;;24.85;34.29;99963.44;4215931;28;19931;-57
2023/11/06 08:19:06;;;;;;;;;;;;;;;24.83;34.26;99970.81;4215593;28;19924;-58
2023/11/06 08:21:09;;;;;;;;;;;;;;;24.82;34.13;99974.50;4216109;28;19963;-58
2023/11/06 08:23:10;;;;;;;;;;;;;;;24.83;34.35;99970.00;4215735;28;20301;-58
2023/11/06 08:25:14;;;;;;;;;;;;;;;24.85;34.17;99976.06;4215597;28;19924;-58
2023/11/06 08:27:15;;;;;;;;;;;;;;;24.86;34.18;99973.19;4215602;28;19931;-57
2023/11/06 08:29:18;;;;;;;;;;;;;;;24.89;34.15;99980.09;4215775;28;19931;-57
2023/11/06 08:31:20;;;;;;;;;;;;;;;24.92;34.16;99979.75;4215620;28;20290;-57
2023/11/06 08:33:22;;;;;;;;;;;;;;;24.93;34.09;99985.97;4215079;28;19923;-57
2023/11/06 08:35:23;;;;;;;;;;;;;;;24.91;33.92;99975.41;4197408;28;19931;-58
2023/11/06 08:37:25;;;;;;;;;;;;;;;24.92;34.15;99978.91;4214939;28;19924;-59
2023/11/06 08:39:27;;;;;;;;;;;;;;;24.89;34.05;99985.47;4215451;28;19931;-57
2023/11/06 08:41:28;;;;;;;;;;;;;;;24.85;33.86;99982.28;4215662;28;19924;-57
2023/11/06 08:43:31;;;;;;;;;;;;;;;24.81;34.27;99983.63;4215303;28;19924;-57
2023/11/06 08:45:33;;;;;;;;;;;;;;;24.82;34.02;99985.28;4215625;28;20019;-57
2023/11/06 08:47:34;;;;;;;;;;;;;;;24.79;33.84;99982.06;4215633;28;19924;-57
2023/11/06 08:49:36;;;;;;;;;;;;;;;24.80;33.95;99986.44;4215282;28;20351;-57
2023/11/06 08:51:39;;;;;;;;;;;;;;;24.77;34.07;99979.56;4215132;28;19938;-57
2023/11/06 08:53:41;;;;;;;;;;;;;;;24.78;33.70;99986.63;4215106;28;19963;-57
2023/11/06 08:55:42;;;;;;;;;;;;;;;24.78;33.79;99985.78;4215292;28;19924;-58
2023/11/06 08:57:44;;;;;;;;;;;;;;;24.76;33.57;99987.81;4215403;28;20286;-58
2023/11/06 08:59:48;;;;;;;;;;;;;;;24.76;33.83;100001.25;4215297;28;20282;-58
2023/11/06 09:01:51;;;;;;;;;;;;;;;24.72;33.69;99996.19;4215205;28;19928;-57
2023/11/06 09:03:53;;;;;;;;;;;;;;;24.71;33.99;99997.19;4214482;28;19936;-58
2023/11/06 09:05:55;;;;;;;;;;;;;;;24.68;33.92;100007.44;4214989;28;20358;-58
2023/11/06 09:07:57;;;;;;;;;;;;;;;24.66;33.79;99999.53;4215217;28;19962;-58
2023/11/06 09:09:59;;;;;;;;;;;;;;;24.64;33.89;100009.59;4215173;28;20305;-58
2023/11/06 09:12:00;;;;;;;;;;;;;;;24.63;33.86;100012.44;4214967;28;19963;-58
2023/11/06 09:14:03;;;;;;;;;;;;;;;24.62;33.67;100011.59;4214703;28;19968;-58
2023/11/06 09:16:05;;;;;;;;;;;;;;;24.62;33.42;100006.22;4215167;28;19978;-58
2023/11/06 09:18:06;;;;;;;;;;;;;;;24.64;33.59;100012.28;4214990;28;20436;-58
2023/11/06 09:20:09;;;;;;;;;;;;;;;24.65;33.49;100015.81;4214820;28;19928;-57
2023/11/06 09:22:12;;;;;;;;;;;;;;;24.63;33.40;100015.97;4214638;28;20322;-57
2023/11/06 09:24:14;;;;;;;;;;;;;;;24.62;33.73;100019.66;4214934;28;20011;-58
2023/11/06 09:26:15;;;;;;;;;;;;;;;24.60;33.44;100016.28;4215060;28;19954;-57
2023/11/06 09:28:17;;;;;;;;;;;;;;;24.60;33.61;100020.84;4214839;28;19924;-58
2023/11/06 09:30:19;;;;;;;;;;;;;;;24.60;33.37;100024.34;4214871;28;19924;-58
2023/11/06 09:32:22;;;;;;;;;;;;;;;24.60;33.41;100024.34;4214863;28;19964;-58
2023/11/06 09:34:23;;;;;;;;;;;;;;;24.64;33.48;100030.25;4196562;28;19924;-57
2023/11/06 09:36:25;;;;;;;;;;;;;;;24.65;33.45;100026.56;4214347;28;19924;-58
2023/11/06 09:38:26;;;;;;;;;;;;;;;24.64;33.40;100031.09;4214736;28;19924;-57
2023/11/06 09:40:29;;;;;;;;;;;;;;;24.63;33.47;100045.56;4214806;28;19924;-57
2023/11/06 09:42:30;;;;;;;;;;;;;;;24.64;33.29;100046.38;4214519;28;20009;-57
2023/11/06 09:44:32;;;;;;;;;;;;;;;24.63;33.38;100045.56;4214578;28;20365;-58
2023/11/06 09:46:35;;;;;;;;;;;;;;;24.62;33.66;100041.19;4214350;28;19924;-57
2023/11/06 09:48:37;;;;;;;;;;;;;;;24.60;33.26;100056.63;4214614;28;20370;-57
2023/11/06 09:50:41;;;;;;;;;;;;;;;24.60;33.61;100053.09;4213950;28;19935;-58
2023/11/06 09:52:43;;;;;;;;;;;;;;;24.60;33.45;100047.72;4214540;28;19928;-57
2023/11/06 09:54:46;;;;;;;;;;;;;;;24.60;33.59;100053.09;4196417;28;19924;-57
2023/11/06 09:56:48;;;;;;;;;;;;;;;24.62;33.43;100057.31;4214441;28;19967;-58
2023/11/06 09:58:49;;;;;;;;;;;;;;;24.65;33.42;100067.72;4214533;28;20014;-57
2023/11/06 10:00:51;;;;;;;;;;;;;;;24.65;33.73;100070.41;4214616;28;19924;-57
2023/11/06 10:02:53;;;;;;;;;;;;;;;24.67;33.35;100065.75;4214212;28;19924;-57
2023/11/06 10:04:54;;;;;;;;;;;;;;;24.65;33.42;100077.66;4214067;28;20416;-58
2023/11/06 10:06:56;;;;;;;;;;;;;;;24.63;33.46;100075.13;4214539;28;19946;-57
2023/11/06 10:08:57;;;;;;;;;;;;;;;24.62;33.73;100084.19;4214106;28;20428;-57
2023/11/06 10:11:05;;;;;;;;;;;;;;;24.61;33.41;100070.91;4214229;28;19930;-57
2023/11/06 10:13:13;;;;;;;;;;;;;;;24.60;33.35;100080.00;4214156;28;19977;-57
2023/11/06 10:15:24;;;;;;;;;;;;;;;24.61;33.28;100082.50;4214060;28;20424;-57
2023/11/06 10:17:26;;;;;;;;;;;;;;;24.61;33.43;100085.19;4213994;28;20357;-58
2023/11/06 10:19:29;;;;;;;;;;;;;;;24.62;33.46;100089.56;4213849;28;20377;-57
2023/11/06 10:21:31;;;;;;;;;;;;;;;24.65;33.27;100091.91;4214279;28;20441;-57
2023/11/06 10:23:36;;;;;;;;;;;;;;;24.69;33.14;100082.56;4214127;28;19931;-57
2023/11/06 10:25:37;;;;;;;;;;;;;;;24.69;33.40;100087.09;4214038;28;20282;-56
2023/11/06 10:27:40;;;;;;;;;;;;;;;24.67;33.20;100095.31;4213840;28;19928;-57
2023/11/06 10:29:56;;;;;;;;;;;;;;;24.64;33.43;100098.31;4214141;28;19924;-57
2023/11/06 10:31:57;;;;;;;;;;;;;;;24.67;33.41;100094.50;4214010;28;19946;-58
2023/11/06 10:34:00;;;;;;;;;;;;;;;24.65;33.12;100096.47;4213617;28;19930;-57